Lincoln, NE (68522)

11:35 PM CST on February 09, 2016 (GMT -0600)
Roper Elementary | | Change Station
CLOSE
Current Station
Personal Weather Station
Location: Lincoln, NE
Elevation: 1214 ft
Nearby Weather Stations

Elev 1214 ft 40.79 °N, 96.75 °W | Updated 18 seconds ago

Overcast
Overcast
20.8 °F
Feels Like 21 °F
N
1.1
Wind Variable Wind from South
Gusts 3.2 mph

Today
High -- | Low -- °F
--% Chance of Precip.
Yesterday
High -- | Low -- °F
Precip. -- in
Pressure 30.28 in
Visibility 10.0 miles
Clouds Overcast 11000 ft
Windchill 21 °F
Dew Point 15 °F
Humidity 77%
Rainfall 0.00 in
Snow Depth Not available.
7:28 AM 5:53 PM
Waxing Crescent, 4% visible
METAR KLNK 100454Z 20003KT 10SM OVC110 M06/M10 A3022 RMK AO2 SLP253 T10611100
Pressure 30.28 in
Visibility 10.0 miles
Clouds Overcast 11000 ft
Windchill 21 °F
Dew Point 15 °F
Humidity 77%
Rainfall 0.00 in
Snow Depth Not available.
7:28 AM 5:53 PM
Waxing Crescent, 4% visible
METAR KLNK 100454Z 20003KT 10SM OVC110 M06/M10 A3022 RMK AO2 SLP253 T10611100

10-Day Weather Forecast

Almanac

Astronomy

Feb. 09, 2016 Rise Set
Actual Time
Civil Twilight
Nautical Twilight
Astronomical Twilight
Moon
Length of Visible Light
Length of Day
Tomorrow will be .
, % of the Moon is Illuminated

Today's Extremes

State Highs State Lows

Community

WunderPhotos

Upload Photos

1,891,823 photos uploaded!

WunderBlog® & News

Nearby

Air Quality

  Air Quality AQ Index Pollutant
Not available.

Snow Depth

Station Depth Elevation

Earthquake Activity

City Distance Mag. Time & Date
Minimum magnitude displayed is 2.5.

Coastal Water Temperatures

Place Temperature

Stations

Nearby Weather Stations

Station Location Temp. Windchill Dew Point Humidity Wind Precip. Elev Updated Type
                   

Watches & Warnings

There are currently no watches in effect.